Terminal Aerodrome Forecast
Issued by NWS

Home | Current Version | Previous Version | Text Only | Print | Product List | Glossary Off
Versions: 1 2 3 4 5 6 7 8 9 10 11 12 13 14 15 16 17 18 19 20 21 22 23 24 25 26 27 28 29 30 31 32 33 34

262
FTUS43 KLOT 231159 CCA
TAFMDW
TAF COR
KMDW 231159Z 2312/2418 32013G21KT 6SM -SHSN BR SCT005 OVC015
      TEMPO 2312/2313 1SM -SN BR BKN005
     FM231500 32015G23KT P6SM OVC020
     FM232100 31012KT P6SM OVC025
     FM240300 31005KT P6SM BKN025 BKN200=

USA.gov is the U.S. government's official web portal to all federal, state and local government web resources and services.